createdAt,value
2018-07-17T00:01:10.106Z,21.20
2018-07-17T00:03:51.017Z,21.20
2018-07-17T00:09:32.912Z,21.10
2018-07-17T00:12:17.108Z,21.00
2018-07-17T00:14:57.766Z,21.00
2018-07-17T00:17:34.527Z,20.90
2018-07-17T00:20:03.559Z,20.80
2018-07-17T00:22:33.484Z,20.80
2018-07-17T00:25:02.533Z,20.70
2018-07-17T00:27:34.134Z,20.70
2018-07-17T00:30:04.293Z,20.60
2018-07-17T00:35:43.961Z,20.50
2018-07-17T00:38:15.389Z,20.50
2018-07-17T00:40:51.706Z,20.40
2018-07-17T00:43:25.709Z,20.30
2018-07-17T00:45:54.277Z,20.40
2018-07-17T00:48:23.266Z,20.30
2018-07-17T00:50:53.079Z,20.30
2018-07-17T00:53:27.323Z,20.20
2018-07-17T00:55:56.375Z,20.20
2018-07-17T00:58:25.066Z,20.10
2018-07-17T01:00:53.201Z,20.10
2018-07-17T01:03:26.986Z,20.10
2018-07-17T01:06:00.942Z,20.10
2018-07-17T01:08:36.240Z,20.10
2018-07-17T01:11:11.094Z,20.00
2018-07-17T01:13:50.737Z,20.00
2018-07-17T01:16:20.622Z,20.00
2018-07-17T01:19:01.972Z,20.00
2018-07-17T01:21:30.754Z,20.00
2018-07-17T01:24:00.535Z,20.00
2018-07-17T01:26:41.453Z,19.90
2018-07-17T01:29:27.108Z,19.90
2018-07-17T01:31:57.608Z,20.00
2018-07-17T01:34:31.895Z,19.90
2018-07-17T01:37:00.582Z,19.90
2018-07-17T01:39:29.719Z,19.80
2018-07-17T01:41:58.872Z,19.80
2018-07-17T01:44:33.249Z,19.80
2018-07-17T01:47:08.166Z,19.80
2018-07-17T01:49:46.436Z,19.80
2018-07-17T01:52:29.166Z,19.80
2018-07-17T01:54:58.456Z,19.70
2018-07-17T01:57:32.441Z,19.70
2018-07-17T02:00:04.225Z,19.70
2018-07-17T02:02:35.620Z,19.70
2018-07-17T02:05:05.455Z,19.70
2018-07-17T02:07:43.784Z,19.60
2018-07-17T02:10:21.489Z,19.60
2018-07-17T02:12:52.861Z,19.50
2018-07-17T02:15:29.016Z,19.60
2018-07-17T02:17:58.156Z,19.50
2018-07-17T02:20:32.340Z,19.50
2018-07-17T02:23:01.304Z,19.50
2018-07-17T02:25:35.836Z,19.50
2018-07-17T02:28:05.193Z,19.50
2018-07-17T02:30:41.927Z,19.40
2018-07-17T02:33:10.233Z,19.40
2018-07-17T02:35:40.089Z,19.40
2018-07-17T02:38:10.329Z,19.40
2018-07-17T02:40:39.008Z,19.40
2018-07-17T02:43:08.778Z,19.40
2018-07-17T02:45:50.660Z,19.30
2018-07-17T02:48:20.449Z,19.20
2018-07-17T02:50:56.461Z,19.20
2018-07-17T02:53:30.957Z,19.10
2018-07-17T02:56:07.021Z,19.10
2018-07-17T02:58:41.594Z,19.10
2018-07-17T03:01:11.049Z,19.00
2018-07-17T03:03:45.618Z,18.90
2018-07-17T03:06:15.629Z,18.90
2018-07-17T03:08:45.321Z,18.90
2018-07-17T03:11:17.245Z,18.80
2018-07-17T03:13:53.827Z,18.80
2018-07-17T03:16:23.360Z,18.70
2018-07-17T03:19:04.586Z,18.80
2018-07-17T03:21:49.065Z,18.70
2018-07-17T03:24:38.377Z,18.70
2018-07-17T03:27:16.712Z,18.70
2018-07-17T03:29:46.575Z,18.70
2018-07-17T03:32:20.776Z,18.70
2018-07-17T03:34:58.793Z,18.60
2018-07-17T03:37:27.207Z,18.60
2018-07-17T03:40:03.495Z,18.50
2018-07-17T03:42:34.888Z,18.50
2018-07-17T03:45:04.768Z,18.40
2018-07-17T03:47:34.754Z,18.30
2018-07-17T03:50:09.020Z,18.40
2018-07-17T03:52:50.253Z,18.30
2018-07-17T03:55:20.166Z,18.30
2018-07-17T03:57:51.900Z,18.30
2018-07-17T04:00:20.778Z,18.30
2018-07-17T04:02:50.718Z,18.40
2018-07-17T04:05:19.889Z,18.40
2018-07-17T04:07:48.622Z,18.40
2018-07-17T04:13:01.854Z,18.40
2018-07-17T04:15:43.215Z,18.30
2018-07-17T04:18:30.512Z,18.30
2018-07-17T04:21:05.461Z,18.30
2018-07-17T04:23:33.986Z,18.30
2018-07-17T04:26:02.789Z,18.30
2018-07-17T04:28:34.804Z,18.30
2018-07-17T04:31:03.673Z,18.30
2018-07-17T04:33:32.558Z,18.30
2018-07-17T04:36:02.861Z,18.30
2018-07-17T04:38:34.199Z,18.30
2018-07-17T04:41:02.880Z,18.20
2018-07-17T04:43:35.894Z,18.30
2018-07-17T04:46:09.144Z,18.30
2018-07-17T04:48:38.722Z,18.30
2018-07-17T04:51:07.753Z,18.40
2018-07-17T04:53:36.705Z,18.40
2018-07-17T04:56:14.962Z,18.40
2018-07-17T04:58:48.705Z,18.50
2018-07-17T05:01:17.111Z,18.60
2018-07-17T05:03:49.137Z,18.50
2018-07-17T05:06:21.123Z,18.60
2018-07-17T05:08:55.199Z,18.50
2018-07-17T05:11:24.368Z,18.50
2018-07-17T05:13:56.287Z,18.60
2018-07-17T05:16:25.088Z,18.60
2018-07-17T05:18:54.660Z,18.60
2018-07-17T05:21:26.636Z,18.60
2018-07-17T05:24:00.834Z,18.70
2018-07-17T05:26:30.094Z,18.70
2018-07-17T05:28:58.928Z,18.80
2018-07-17T05:31:39.785Z,18.80
2018-07-17T05:34:13.803Z,18.90
2018-07-17T05:36:48.615Z,18.90
2018-07-17T05:42:19.139Z,19.10
2018-07-17T05:45:04.445Z,19.20
2018-07-17T05:47:35.738Z,19.30
2018-07-17T05:50:04.655Z,19.40
2018-07-17T05:52:39.285Z,19.50
2018-07-17T05:55:08.449Z,19.60
2018-07-17T05:57:38.263Z,19.70
2018-07-17T06:00:08.749Z,19.80
2018-07-17T06:02:55.221Z,19.90
2018-07-17T06:05:26.737Z,20.00
2018-07-17T06:07:56.661Z,20.10
2018-07-17T06:10:25.510Z,20.20
2018-07-17T06:12:59.583Z,20.30
2018-07-17T06:15:28.398Z,20.40
2018-07-17T06:17:58.140Z,20.60
2018-07-17T06:20:28.093Z,20.60
2018-07-17T06:22:57.089Z,20.80
2018-07-17T06:25:28.708Z,20.90
2018-07-17T06:28:18.363Z,20.90
2018-07-17T06:31:00.533Z,21.00
2018-07-17T06:33:32.621Z,21.00
2018-07-17T06:36:10.809Z,21.10
2018-07-17T06:38:41.589Z,21.10
2018-07-17T06:41:11.559Z,21.40
2018-07-17T06:43:52.789Z,21.50
2018-07-17T06:46:21.645Z,21.70
2018-07-17T06:48:51.224Z,21.70
2018-07-17T06:54:09.927Z,22.00
2018-07-17T06:56:45.920Z,22.10
2018-07-17T06:59:17.616Z,22.40
2018-07-17T07:01:49.032Z,22.40
2018-07-17T07:04:19.268Z,22.50
2018-07-17T07:06:48.800Z,22.50
2018-07-17T07:09:20.860Z,22.60
2018-07-17T07:12:04.517Z,22.80
2018-07-17T07:14:46.044Z,22.90
2018-07-17T07:17:15.829Z,23.30
2018-07-17T07:19:44.445Z,23.20
2018-07-17T07:22:14.447Z,23.30
2018-07-17T07:24:45.918Z,23.30
2018-07-17T07:27:20.244Z,23.20
2018-07-17T07:30:01.484Z,23.30
2018-07-17T07:32:44.526Z,23.40
2018-07-17T07:35:31.038Z,23.40
2018-07-17T07:38:00.456Z,23.70
2018-07-17T07:40:29.118Z,23.80
2018-07-17T07:42:58.423Z,24.20
2018-07-17T07:45:32.687Z,24.00
2018-07-17T07:48:01.548Z,23.90
2018-07-17T07:50:35.739Z,23.90
2018-07-17T07:53:04.987Z,24.00
2018-07-17T07:55:34.806Z,23.90
2018-07-17T07:58:03.612Z,24.20
2018-07-17T08:00:35.342Z,24.30
2018-07-17T08:03:05.585Z,24.50
2018-07-17T08:05:34.579Z,24.60
2018-07-17T08:08:04.594Z,24.70
2018-07-17T08:10:33.666Z,24.70
2018-07-17T08:13:03.459Z,25.00
2018-07-17T08:15:35.512Z,24.70
2018-07-17T08:18:04.133Z,24.60
2018-07-17T08:20:35.872Z,24.60
2018-07-17T08:23:14.141Z,24.80
2018-07-17T08:25:48.957Z,24.90
2018-07-17T08:28:20.417Z,24.70
2018-07-17T08:31:02.724Z,24.60
2018-07-17T08:33:37.143Z,24.80
2018-07-17T08:36:09.517Z,25.20
2018-07-17T08:38:39.814Z,25.20
2018-07-17T08:41:08.328Z,25.20
2018-07-17T08:43:38.259Z,25.00
2018-07-17T08:46:07.986Z,24.90
2018-07-17T08:48:39.710Z,25.10
2018-07-17T08:51:09.507Z,24.90
2018-07-17T08:53:41.550Z,24.90
2018-07-17T08:56:12.449Z,24.90
2018-07-17T08:58:42.853Z,25.10
2018-07-17T09:01:12.234Z,25.10
2018-07-17T09:03:42.753Z,25.20
2018-07-17T09:06:14.350Z,25.40
2018-07-17T09:08:43.744Z,25.60
2018-07-17T09:11:12.105Z,25.40
2018-07-17T09:13:48.674Z,25.50
2018-07-17T09:16:23.284Z,25.50
2018-07-17T09:18:52.558Z,25.70
2018-07-17T09:21:24.273Z,25.90
2018-07-17T09:23:53.406Z,25.80
2018-07-17T09:26:25.236Z,25.80
2018-07-17T09:28:56.960Z,25.60
2018-07-17T09:31:35.396Z,26.00
2018-07-17T09:34:10.313Z,26.20
2018-07-17T09:39:24.016Z,26.30
2018-07-17T09:41:53.856Z,26.40
2018-07-17T09:44:22.665Z,26.20
2018-07-17T09:49:46.171Z,26.20
2018-07-17T09:52:20.571Z,25.90
2018-07-17T10:00:34.635Z,26.50
2018-07-17T10:03:06.022Z,26.50
2018-07-17T10:05:44.515Z,26.70
2018-07-17T10:08:18.534Z,26.60
2018-07-17T10:10:51.033Z,26.70
2018-07-17T10:13:20.230Z,27.30
2018-07-17T10:15:48.978Z,27.20
2018-07-17T10:18:23.587Z,27.50
2018-07-17T10:20:58.556Z,27.40
2018-07-17T10:25:42.813Z,27.00
2018-07-17T10:28:23.946Z,27.50
2018-07-17T10:30:52.706Z,27.50
2018-07-17T10:33:24.503Z,26.90
2018-07-17T10:35:57.199Z,27.20
2018-07-17T10:38:27.052Z,27.60
2018-07-17T10:40:56.015Z,27.40
2018-07-17T10:43:27.844Z,27.50
2018-07-17T10:45:56.598Z,27.80
2018-07-17T10:51:23.260Z,27.20
2018-07-17T10:54:10.832Z,26.50
2018-07-17T10:56:43.410Z,26.60
2018-07-17T10:59:15.304Z,27.10
2018-07-17T11:01:45.037Z,27.00
2018-07-17T11:04:19.170Z,27.30
2018-07-17T11:06:55.328Z,26.90
2018-07-17T11:09:38.892Z,26.90
2018-07-17T11:12:19.292Z,27.20
2018-07-17T11:14:49.217Z,26.80
2018-07-17T11:17:23.209Z,27.20
2018-07-17T11:19:53.688Z,27.30
2018-07-17T11:22:22.194Z,27.40
2018-07-17T11:24:51.014Z,27.10
2018-07-17T11:27:25.241Z,26.60
2018-07-17T11:32:39.876Z,26.70
2018-07-17T11:35:08.654Z,27.40
2018-07-17T11:37:37.498Z,27.40
2018-07-17T11:40:06.243Z,27.10
2018-07-17T11:42:37.921Z,26.70
2018-07-17T11:45:09.718Z,26.80
2018-07-17T11:47:38.717Z,26.70
2018-07-17T11:50:10.321Z,26.70
2018-07-17T11:52:39.123Z,26.80
2018-07-17T11:55:08.001Z,27.40
2018-07-17T11:57:36.906Z,27.20
2018-07-17T12:00:06.180Z,27.20
2018-07-17T12:02:40.356Z,27.10
2018-07-17T12:05:09.128Z,27.30
2018-07-17T12:07:40.990Z,27.30
2018-07-17T12:10:10.954Z,27.40
2018-07-17T12:12:39.947Z,27.70
2018-07-17T12:15:08.793Z,27.60
2018-07-17T12:17:37.468Z,27.60
2018-07-17T12:20:06.457Z,27.60
2018-07-17T12:22:34.972Z,27.90
2018-07-17T12:25:03.624Z,27.50
2018-07-17T12:30:06.949Z,27.40
2018-07-17T12:35:03.882Z,27.30
2018-07-17T12:37:32.579Z,27.20
2018-07-17T12:40:04.433Z,27.10
2018-07-17T12:42:33.141Z,27.10
2018-07-17T12:45:01.949Z,27.10
2018-07-17T12:47:30.689Z,27.30
2018-07-17T12:49:59.820Z,27.40
2018-07-17T12:52:28.783Z,26.70
2018-07-17T12:54:57.479Z,26.50
2018-07-17T12:57:26.671Z,27.00
2018-07-17T12:59:55.049Z,26.70
2018-07-17T13:02:23.701Z,26.80
2018-07-17T13:04:53.630Z,26.80
2018-07-17T13:07:22.398Z,26.90
2018-07-17T13:09:50.964Z,26.60
2018-07-17T13:12:19.837Z,27.40
2018-07-17T13:14:48.730Z,27.60
2018-07-17T13:17:17.648Z,27.20
2018-07-17T13:19:46.497Z,27.40
2018-07-17T13:22:15.200Z,27.50
2018-07-17T13:24:44.132Z,27.20
2018-07-17T13:27:12.856Z,27.30
2018-07-17T13:29:47.848Z,27.50
2018-07-17T13:32:17.123Z,27.40
2018-07-17T13:34:46.303Z,27.30
2018-07-17T13:37:14.696Z,27.20
2018-07-17T13:39:43.394Z,27.00
2018-07-17T13:42:12.568Z,27.10
2018-07-17T13:44:41.217Z,27.00
2018-07-17T13:47:10.046Z,27.10
2018-07-17T13:49:38.797Z,26.70
2018-07-17T13:52:07.415Z,26.10
2018-07-17T13:54:37.645Z,26.20
2018-07-17T13:59:35.002Z,26.10
2018-07-17T14:02:04.351Z,26.70
2018-07-17T14:04:32.633Z,27.10
2018-07-17T14:07:01.579Z,27.30
2018-07-17T14:09:30.634Z,27.40
2018-07-17T14:11:59.160Z,26.60
2018-07-17T14:14:27.959Z,26.50
2018-07-17T14:16:56.826Z,26.10
2018-07-17T14:19:25.620Z,26.10
2018-07-17T14:21:54.419Z,26.50
2018-07-17T14:24:23.177Z,26.40
2018-07-17T14:26:51.844Z,26.20
2018-07-17T14:29:20.609Z,26.70
2018-07-17T14:31:50.501Z,27.00
2018-07-17T14:34:19.383Z,26.30
2018-07-17T14:36:48.304Z,26.70
2018-07-17T14:39:17.139Z,26.50
2018-07-17T14:41:46.099Z,26.20
2018-07-17T14:44:14.848Z,25.30
2018-07-17T14:49:13.033Z,26.80
2018-07-17T14:51:41.918Z,26.30
2018-07-17T14:54:10.772Z,26.00
2018-07-17T14:56:39.554Z,25.40
2018-07-17T14:59:08.296Z,25.40
2018-07-17T15:01:37.034Z,25.50
2018-07-17T15:04:06.022Z,25.50
2018-07-17T15:06:37.721Z,25.80
2018-07-17T15:09:07.750Z,26.20
2018-07-17T15:11:37.916Z,26.10
2018-07-17T15:14:06.861Z,26.20
2018-07-17T15:16:35.993Z,25.40
2018-07-17T15:19:04.655Z,25.60
2018-07-17T15:21:33.330Z,26.20
2018-07-17T15:24:02.342Z,25.50
2018-07-17T15:29:00.826Z,25.40
2018-07-17T15:31:33.657Z,25.20
2018-07-17T15:34:02.246Z,25.40
2018-07-17T15:36:31.253Z,24.90
2018-07-17T15:39:01.137Z,25.40
2018-07-17T15:41:30.317Z,24.70
2018-07-17T15:44:08.076Z,24.20
2018-07-17T15:46:37.100Z,23.60
2018-07-17T15:49:06.421Z,24.50
2018-07-17T15:51:38.015Z,24.10
2018-07-17T15:54:09.767Z,23.80
2018-07-17T15:56:39.701Z,23.60
2018-07-17T15:59:08.509Z,23.40
2018-07-17T16:01:38.284Z,23.20
2018-07-17T16:04:10.348Z,23.10
2018-07-17T16:06:39.151Z,23.20
2018-07-17T16:09:08.959Z,23.30
2018-07-17T16:11:37.920Z,23.30
2018-07-17T16:14:07.105Z,23.40
2018-07-17T16:16:38.427Z,23.40
2018-07-17T16:19:07.195Z,23.60
2018-07-17T16:21:37.008Z,23.80
2018-07-17T16:24:06.838Z,23.90
2018-07-17T16:26:41.151Z,24.00
2018-07-17T16:29:10.194Z,23.80
2018-07-17T16:31:38.967Z,23.80
2018-07-17T16:34:08.961Z,23.50
2018-07-17T16:36:43.267Z,23.20
2018-07-17T16:39:14.568Z,24.00
2018-07-17T16:41:46.521Z,24.00
2018-07-17T16:44:18.539Z,23.60
2018-07-17T16:46:47.330Z,23.40
2018-07-17T16:49:23.635Z,23.40
2018-07-17T16:51:52.527Z,23.70
2018-07-17T16:54:26.869Z,23.70
2018-07-17T16:57:02.867Z,23.60
2018-07-17T16:59:32.891Z,23.60
2018-07-17T17:02:15.602Z,23.90
2018-07-17T17:04:50.011Z,24.10
2018-07-17T17:07:19.225Z,23.80
2018-07-17T17:09:50.861Z,23.80
2018-07-17T17:12:19.466Z,23.50
2018-07-17T17:14:49.311Z,23.80
2018-07-17T17:17:29.988Z,23.70
2018-07-17T17:19:58.782Z,24.00
2018-07-17T17:22:28.734Z,24.00
2018-07-17T17:25:14.673Z,23.50
2018-07-17T17:27:48.489Z,23.70
2018-07-17T17:30:16.964Z,23.60
2018-07-17T17:32:46.807Z,23.40
2018-07-17T17:35:15.604Z,23.30
2018-07-17T17:37:44.282Z,23.20
2018-07-17T17:40:18.802Z,22.80
2018-07-17T17:42:47.943Z,22.70
2018-07-17T17:45:24.198Z,22.70
2018-07-17T17:50:21.030Z,22.50
2018-07-17T17:52:49.848Z,22.30
2018-07-17T17:55:38.092Z,22.20
2018-07-17T17:58:12.678Z,22.00
2018-07-17T18:00:41.850Z,21.90
2018-07-17T18:03:10.498Z,21.80
2018-07-17T18:05:55.444Z,21.80
2018-07-17T18:08:24.089Z,21.90
2018-07-17T18:10:56.040Z,21.70
2018-07-17T18:13:24.827Z,21.50
2018-07-17T18:15:59.213Z,21.20
2018-07-17T18:21:28.432Z,20.90
2018-07-17T18:26:49.542Z,20.70
2018-07-17T18:29:18.527Z,20.60
2018-07-17T18:31:47.331Z,20.60
2018-07-17T18:34:16.422Z,20.40
2018-07-17T18:36:48.142Z,20.50
2018-07-17T18:41:45.562Z,20.40
2018-07-17T18:44:14.141Z,20.20
2018-07-17T18:46:43.900Z,20.10
2018-07-17T18:51:42.498Z,19.80
2018-07-17T18:54:11.398Z,19.70
2018-07-17T18:56:40.102Z,19.80
2018-07-17T18:59:08.679Z,19.80
2018-07-17T19:01:37.794Z,19.70
2018-07-17T19:04:06.784Z,19.70
2018-07-17T19:06:36.279Z,19.50
2018-07-17T20:31:17.489Z,19.40
2018-07-17T20:33:49.148Z,17.60
2018-07-17T20:36:19.120Z,17.50
2018-07-17T20:38:48.627Z,17.50
2018-07-17T20:41:22.945Z,17.50
2018-07-17T20:43:51.443Z,17.40
2018-07-17T20:46:21.152Z,17.50
2018-07-17T20:48:50.781Z,17.40
2018-07-17T20:51:19.469Z,17.30
2018-07-17T20:53:48.257Z,17.30
2018-07-17T20:56:17.576Z,17.30
2018-07-17T20:58:46.086Z,17.30
2018-07-17T21:01:15.235Z,17.30
2018-07-17T21:03:44.241Z,17.30
2018-07-17T21:06:13.870Z,17.20
2018-07-17T21:08:45.736Z,17.20
2018-07-17T21:11:14.632Z,17.20
2018-07-17T21:13:43.429Z,17.10
2018-07-17T21:16:12.321Z,17.10
2018-07-17T21:18:41.287Z,16.90
2018-07-17T21:21:11.827Z,16.90
2018-07-17T21:23:40.473Z,17.00
2018-07-17T21:26:09.217Z,16.90
2018-07-17T21:28:38.151Z,16.90
2018-07-17T21:31:07.301Z,16.90
2018-07-17T21:33:36.277Z,16.90
2018-07-17T21:36:07.077Z,16.80
2018-07-17T21:38:35.542Z,16.80
2018-07-17T21:41:04.278Z,16.80
2018-07-17T21:43:33.244Z,16.80
2018-07-17T21:46:01.988Z,16.70
2018-07-17T21:48:31.361Z,16.70
2018-07-17T21:50:59.870Z,16.70
2018-07-17T21:53:28.529Z,16.60
2018-07-17T21:55:57.137Z,16.60
2018-07-17T21:58:25.982Z,16.50
2018-07-17T22:00:55.002Z,16.50
2018-07-17T22:03:24.060Z,16.50
2018-07-17T22:05:52.703Z,16.50
2018-07-17T22:08:21.807Z,16.40
2018-07-17T22:10:50.693Z,16.40
2018-07-17T22:13:19.506Z,16.40
2018-07-17T22:17:12.753Z,16.30
2018-07-17T22:19:41.191Z,16.30
2018-07-17T22:22:10.013Z,16.20
2018-07-17T22:24:38.886Z,16.20
2018-07-17T22:27:07.821Z,16.20
2018-07-17T22:29:36.637Z,16.20
2018-07-17T22:32:05.453Z,16.10
2018-07-17T22:34:34.730Z,16.10
2018-07-17T22:37:03.471Z,16.10
2018-07-17T22:39:32.608Z,16.10
2018-07-17T22:42:02.479Z,16.00
2018-07-17T22:44:32.165Z,16.00
2018-07-17T22:47:00.851Z,15.90
2018-07-17T22:49:30.855Z,15.90
2018-07-17T22:51:59.697Z,15.90
2018-07-17T22:54:28.549Z,15.80
2018-07-17T22:56:57.545Z,15.80
2018-07-17T22:59:26.143Z,15.80
2018-07-17T23:02:09.554Z,15.70
2018-07-17T23:04:38.157Z,15.80
2018-07-17T23:07:07.184Z,15.70
2018-07-17T23:09:36.042Z,15.70
2018-07-17T23:12:04.765Z,15.60
2018-07-17T23:14:33.536Z,15.60
2018-07-17T23:17:02.608Z,15.60
2018-07-17T23:19:31.912Z,15.60
2018-07-17T23:22:01.389Z,15.60
2018-07-17T23:24:30.640Z,15.60
2018-07-17T23:29:27.309Z,15.50
2018-07-17T23:31:56.314Z,15.60
2018-07-17T23:34:25.078Z,15.50
2018-07-17T23:39:22.699Z,15.60
2018-07-17T23:41:52.159Z,15.50
2018-07-17T23:44:21.078Z,15.50
2018-07-17T23:46:50.340Z,15.50
2018-07-17T23:49:24.069Z,15.40
2018-07-17T23:51:53.625Z,15.40
2018-07-17T23:54:22.092Z,15.40
2018-07-17T23:56:50.794Z,15.40
